sensor_id;sensor_type;location;lat;lon;timestamp;pressure;altitude;pressure_sealevel;temperature;humidity
74334;BME280;62753;40.394;-80.022;2023-01-24T00:00:41;97515.65;;;1.97;51.04
74334;BME280;62753;40.394;-80.022;2023-01-24T00:03:07;97512.89;;;2.36;49.09
74334;BME280;62753;40.394;-80.022;2023-01-24T00:05:34;97514.44;;;2.74;48.29
74334;BME280;62753;40.394;-80.022;2023-01-24T00:07:57;97517.45;;;3.73;46.79
74334;BME280;62753;40.394;-80.022;2023-01-24T00:10:23;97522.47;;;2.71;47.39
74334;BME280;62753;40.394;-80.022;2023-01-24T00:12:48;97525.93;;;2.86;48.50
74334;BME280;62753;40.394;-80.022;2023-01-24T00:15:14;97528.65;;;3.48;48.30
74334;BME280;62753;40.394;-80.022;2023-01-24T00:17:39;97530.89;;;3.60;47.13
74334;BME280;62753;40.394;-80.022;2023-01-24T00:20:05;97533.44;;;4.29;45.09
74334;BME280;62753;40.394;-80.022;2023-01-24T00:22:30;97539.18;;;4.07;44.60
74334;BME280;62753;40.394;-80.022;2023-01-24T00:24:56;97541.58;;;4.21;43.99
74334;BME280;62753;40.394;-80.022;2023-01-24T00:27:21;97552.52;;;5.29;42.57
74334;BME280;62753;40.394;-80.022;2023-01-24T00:29:46;97549.95;;;4.90;42.81
74334;BME280;62753;40.394;-80.022;2023-01-24T00:32:11;97553.70;;;4.91;44.60
74334;BME280;62753;40.394;-80.022;2023-01-24T00:34:37;97560.70;;;5.08;43.84
74334;BME280;62753;40.394;-80.022;2023-01-24T00:37:03;97560.22;;;4.03;44.78
74334;BME280;62753;40.394;-80.022;2023-01-24T00:39:29;97565.39;;;4.22;45.13
74334;BME280;62753;40.394;-80.022;2023-01-24T00:41:54;97572.87;;;4.28;44.50
74334;BME280;62753;40.394;-80.022;2023-01-24T00:44:19;97570.32;;;5.11;43.15
74334;BME280;62753;40.394;-80.022;2023-01-24T00:46:45;97571.47;;;4.20;43.83
74334;BME280;62753;40.394;-80.022;2023-01-24T00:49:09;97573.52;;;5.22;42.05
74334;BME280;62753;40.394;-80.022;2023-01-24T00:51:35;97580.58;;;4.58;44.15
74334;BME280;62753;40.394;-80.022;2023-01-24T00:54:00;97576.28;;;5.02;42.61
74334;BME280;62753;40.394;-80.022;2023-01-24T00:56:27;97580.73;;;4.95;42.34
74334;BME280;62753;40.394;-80.022;2023-01-24T00:58:51;97579.56;;;4.32;44.02
74334;BME280;62753;40.394;-80.022;2023-01-24T01:01:16;97581.66;;;5.00;42.58
74334;BME280;62753;40.394;-80.022;2023-01-24T01:03:42;97585.56;;;5.02;43.01
74334;BME280;62753;40.394;-80.022;2023-01-24T01:06:12;97581.46;;;5.13;41.82
74334;BME280;62753;40.394;-80.022;2023-01-24T01:08:33;97583.10;;;4.16;42.71
74334;BME280;62753;40.394;-80.022;2023-01-24T01:10:59;97576.96;;;2.38;45.79
74334;BME280;62753;40.394;-80.022;2023-01-24T01:13:25;97578.85;;;2.70;46.93
74334;BME280;62753;40.394;-80.022;2023-01-24T01:15:50;97574.09;;;3.23;45.84
74334;BME280;62753;40.394;-80.022;2023-01-24T01:18:15;97571.55;;;3.68;43.65
74334;BME280;62753;40.394;-80.022;2023-01-24T01:20:49;97577.44;;;2.94;45.73
74334;BME280;62753;40.394;-80.022;2023-01-24T01:23:06;97576.29;;;3.19;44.83
74334;BME280;62753;40.394;-80.022;2023-01-24T01:25:32;97570.24;;;3.33;44.60
74334;BME280;62753;40.394;-80.022;2023-01-24T01:27:57;97568.80;;;1.53;48.29
74334;BME280;62753;40.394;-80.022;2023-01-24T01:30:23;97565.69;;;2.87;46.56
74334;BME280;62753;40.394;-80.022;2023-01-24T01:32:48;97568.35;;;3.79;45.50
74334;BME280;62753;40.394;-80.022;2023-01-24T01:35:14;97563.57;;;2.84;46.57
74334;BME280;62753;40.394;-80.022;2023-01-24T01:37:39;97571.93;;;4.77;43.47
74334;BME280;62753;40.394;-80.022;2023-01-24T01:40:06;97569.31;;;3.85;43.61
74334;BME280;62753;40.394;-80.022;2023-01-24T01:42:39;97560.95;;;2.79;46.64
74334;BME280;62753;40.394;-80.022;2023-01-24T01:44:55;97569.52;;;2.75;46.51
74334;BME280;62753;40.394;-80.022;2023-01-24T01:47:25;97571.73;;;1.74;49.24
74334;BME280;62753;40.394;-80.022;2023-01-24T01:49:50;97568.14;;;2.49;47.95
74334;BME280;62753;40.394;-80.022;2023-01-24T01:52:12;97567.61;;;2.58;47.36
74334;BME280;62753;40.394;-80.022;2023-01-24T01:54:40;97573.80;;;1.96;48.28
74334;BME280;62753;40.394;-80.022;2023-01-24T01:57:04;97570.17;;;3.77;45.67
74334;BME280;62753;40.394;-80.022;2023-01-24T01:59:32;97575.51;;;2.22;47.66
74334;BME280;62753;40.394;-80.022;2023-01-24T02:01:56;97562.76;;;3.24;45.98
74334;BME280;62753;40.394;-80.022;2023-01-24T02:04:22;97567.41;;;3.71;43.60
74334;BME280;62753;40.394;-80.022;2023-01-24T02:06:52;97570.35;;;2.40;44.04
74334;BME280;62753;40.394;-80.022;2023-01-24T02:09:11;97573.50;;;3.66;43.33
74334;BME280;62753;40.394;-80.022;2023-01-24T02:11:38;97581.30;;;3.08;44.03
74334;BME280;62753;40.394;-80.022;2023-01-24T02:14:02;97582.82;;;3.81;42.76
74334;BME280;62753;40.394;-80.022;2023-01-24T02:16:27;97585.78;;;3.74;44.15
74334;BME280;62753;40.394;-80.022;2023-01-24T02:18:52;97588.61;;;3.15;44.30
74334;BME280;62753;40.394;-80.022;2023-01-24T02:21:18;97591.56;;;4.08;43.57
74334;BME280;62753;40.394;-80.022;2023-01-24T02:23:50;97588.53;;;3.87;43.20
74334;BME280;62753;40.394;-80.022;2023-01-24T02:26:10;97587.21;;;4.09;43.20
74334;BME280;62753;40.394;-80.022;2023-01-24T02:28:35;97580.67;;;4.10;43.23
74334;BME280;62753;40.394;-80.022;2023-01-24T02:31:01;97584.80;;;2.99;45.16
74334;BME280;62753;40.394;-80.022;2023-01-24T02:33:26;97588.76;;;2.64;46.19
74334;BME280;62753;40.394;-80.022;2023-01-24T02:35:56;97593.64;;;3.19;44.91
74334;BME280;62753;40.394;-80.022;2023-01-24T02:38:19;97599.64;;;3.32;44.59
74334;BME280;62753;40.394;-80.022;2023-01-24T02:40:42;97608.76;;;3.55;45.00
74334;BME280;62753;40.394;-80.022;2023-01-24T02:43:09;97603.62;;;2.83;46.01
74334;BME280;62753;40.394;-80.022;2023-01-24T02:45:34;97601.73;;;2.81;44.96
74334;BME280;62753;40.394;-80.022;2023-01-24T02:47:58;97611.67;;;2.28;46.81
74334;BME280;62753;40.394;-80.022;2023-01-24T02:50:26;97606.56;;;2.56;46.79
74334;BME280;62753;40.394;-80.022;2023-01-24T02:52:49;97604.53;;;2.68;46.31
74334;BME280;62753;40.394;-80.022;2023-01-24T02:55:14;97607.24;;;3.11;45.81
74334;BME280;62753;40.394;-80.022;2023-01-24T02:57:40;97610.46;;;3.58;44.09
74334;BME280;62753;40.394;-80.022;2023-01-24T03:00:07;97600.88;;;2.25;45.59
74334;BME280;62753;40.394;-80.022;2023-01-24T03:02:31;97604.17;;;3.24;43.67
74334;BME280;62753;40.394;-80.022;2023-01-24T03:04:56;97602.30;;;2.78;45.80
74334;BME280;62753;40.394;-80.022;2023-01-24T03:07:21;97608.09;;;1.48;49.73
74334;BME280;62753;40.394;-80.022;2023-01-24T03:09:47;97605.56;;;3.56;44.20
74334;BME280;62753;40.394;-80.022;2023-01-24T03:12:12;97595.87;;;2.57;45.88
74334;BME280;62753;40.394;-80.022;2023-01-24T03:14:37;97589.60;;;2.89;44.56
74334;BME280;62753;40.394;-80.022;2023-01-24T03:17:03;97587.60;;;2.88;44.69
74334;BME280;62753;40.394;-80.022;2023-01-24T03:19:28;97588.77;;;2.44;45.71
74334;BME280;62753;40.394;-80.022;2023-01-24T03:21:53;97589.53;;;2.60;45.31
74334;BME280;62753;40.394;-80.022;2023-01-24T03:24:18;97586.49;;;2.24;45.52
74334;BME280;62753;40.394;-80.022;2023-01-24T03:26:44;97588.02;;;2.22;46.36
74334;BME280;62753;40.394;-80.022;2023-01-24T03:29:10;97581.01;;;2.88;45.26
74334;BME280;62753;40.394;-80.022;2023-01-24T03:31:34;97584.78;;;1.80;47.16
74334;BME280;62753;40.394;-80.022;2023-01-24T03:34:00;97587.28;;;1.65;47.71
74334;BME280;62753;40.394;-80.022;2023-01-24T03:36:25;97590.47;;;0.74;48.97
74334;BME280;62753;40.394;-80.022;2023-01-24T03:38:51;97592.33;;;1.63;47.96
74334;BME280;62753;40.394;-80.022;2023-01-24T03:41:17;97589.78;;;1.56;48.11
74334;BME280;62753;40.394;-80.022;2023-01-24T03:43:42;97587.62;;;1.06;49.51
74334;BME280;62753;40.394;-80.022;2023-01-24T03:46:07;97597.94;;;2.29;47.56
74334;BME280;62753;40.394;-80.022;2023-01-24T03:48:32;97586.86;;;2.30;46.53
74334;BME280;62753;40.394;-80.022;2023-01-24T03:50:58;97588.62;;;2.06;46.93
74334;BME280;62753;40.394;-80.022;2023-01-24T03:53:25;97586.82;;;2.41;46.71
74334;BME280;62753;40.394;-80.022;2023-01-24T03:55:52;97589.26;;;2.53;46.37
74334;BME280;62753;40.394;-80.022;2023-01-24T03:58:14;97587.64;;;1.83;48.03
74334;BME280;62753;40.394;-80.022;2023-01-24T04:00:39;97585.56;;;2.24;46.93
74334;BME280;62753;40.394;-80.022;2023-01-24T04:03:05;97590.46;;;0.98;48.47
74334;BME280;62753;40.394;-80.022;2023-01-24T04:05:29;97582.31;;;1.72;48.18
74334;BME280;62753;40.394;-80.022;2023-01-24T04:07:55;97595.45;;;1.72;48.59
74334;BME280;62753;40.394;-80.022;2023-01-24T04:10:21;97585.79;;;1.23;49.39
74334;BME280;62753;40.394;-80.022;2023-01-24T04:12:46;97590.82;;;1.74;48.21
74334;BME280;62753;40.394;-80.022;2023-01-24T04:15:16;97593.64;;;1.82;47.35
74334;BME280;62753;40.394;-80.022;2023-01-24T04:17:35;97600.00;;;1.58;49.13
74334;BME280;62753;40.394;-80.022;2023-01-24T04:20:01;97601.70;;;0.91;50.52
74334;BME280;62753;40.394;-80.022;2023-01-24T04:22:26;97608.31;;;1.94;47.76
74334;BME280;62753;40.394;-80.022;2023-01-24T04:24:51;97608.97;;;2.23;46.76
74334;BME280;62753;40.394;-80.022;2023-01-24T04:27:17;97609.88;;;1.32;48.80
74334;BME280;62753;40.394;-80.022;2023-01-24T04:29:42;97608.21;;;2.40;46.96
74334;BME280;62753;40.394;-80.022;2023-01-24T04:32:09;97602.55;;;2.46;45.90
74334;BME280;62753;40.394;-80.022;2023-01-24T04:34:34;97602.05;;;3.31;44.60
74334;BME280;62753;40.394;-80.022;2023-01-24T04:36:59;97608.88;;;1.80;46.49
74334;BME280;62753;40.394;-80.022;2023-01-24T04:39:25;97610.89;;;2.86;45.68
74334;BME280;62753;40.394;-80.022;2023-01-24T04:41:50;97613.37;;;2.71;45.90
74334;BME280;62753;40.394;-80.022;2023-01-24T04:44:15;97625.62;;;1.93;46.91
74334;BME280;62753;40.394;-80.022;2023-01-24T04:46:40;97625.44;;;1.87;47.91
74334;BME280;62753;40.394;-80.022;2023-01-24T04:49:06;97619.07;;;1.62;47.80
74334;BME280;62753;40.394;-80.022;2023-01-24T04:51:31;97625.27;;;1.21;47.76
74334;BME280;62753;40.394;-80.022;2023-01-24T04:53:56;97618.40;;;1.13;48.49
74334;BME280;62753;40.394;-80.022;2023-01-24T04:56:22;97613.29;;;1.78;47.52
74334;BME280;62753;40.394;-80.022;2023-01-24T04:58:47;97610.95;;;2.83;44.60
74334;BME280;62753;40.394;-80.022;2023-01-24T05:01:13;97615.19;;;2.51;44.00
74334;BME280;62753;40.394;-80.022;2023-01-24T05:03:38;97619.82;;;1.45;46.98
74334;BME280;62753;40.394;-80.022;2023-01-24T05:06:04;97610.63;;;1.05;47.86
74334;BME280;62753;40.394;-80.022;2023-01-24T05:08:29;97612.42;;;1.90;47.00
74334;BME280;62753;40.394;-80.022;2023-01-24T05:10:54;97615.44;;;1.75;46.68
74334;BME280;62753;40.394;-80.022;2023-01-24T05:13:19;97602.21;;;1.40;47.21
74334;BME280;62753;40.394;-80.022;2023-01-24T05:15:46;97601.95;;;2.41;46.09
74334;BME280;62753;40.394;-80.022;2023-01-24T05:18:09;97598.58;;;2.63;44.12
74334;BME280;62753;40.394;-80.022;2023-01-24T05:20:35;97603.14;;;3.81;42.30
74334;BME280;62753;40.394;-80.022;2023-01-24T05:23:00;97599.28;;;4.28;41.47
74334;BME280;62753;40.394;-80.022;2023-01-24T05:25:25;97602.32;;;3.40;42.53
74334;BME280;62753;40.394;-80.022;2023-01-24T05:27:51;97605.47;;;3.32;42.84
74334;BME280;62753;40.394;-80.022;2023-01-24T05:30:17;97606.33;;;3.06;44.32
74334;BME280;62753;40.394;-80.022;2023-01-24T05:32:41;97599.14;;;2.79;44.93
74334;BME280;62753;40.394;-80.022;2023-01-24T05:35:08;97603.46;;;3.21;43.71
74334;BME280;62753;40.394;-80.022;2023-01-24T05:37:32;97607.62;;;3.17;42.96
74334;BME280;62753;40.394;-80.022;2023-01-24T05:39:57;97610.77;;;2.44;45.02
74334;BME280;62753;40.394;-80.022;2023-01-24T05:42:22;97603.26;;;1.72;46.39
74334;BME280;62753;40.394;-80.022;2023-01-24T05:44:48;97605.20;;;2.73;44.95
74334;BME280;62753;40.394;-80.022;2023-01-24T05:47:14;97601.04;;;1.54;46.38
74334;BME280;62753;40.394;-80.022;2023-01-24T05:49:39;97608.92;;;1.82;47.77
74334;BME280;62753;40.394;-80.022;2023-01-24T05:52:04;97603.93;;;1.58;46.34
74334;BME280;62753;40.394;-80.022;2023-01-24T05:54:30;97614.96;;;1.97;47.25
74334;BME280;62753;40.394;-80.022;2023-01-24T05:56:54;97611.91;;;2.18;46.59
74334;BME280;62753;40.394;-80.022;2023-01-24T05:59:20;97615.68;;;2.03;46.42
74334;BME280;62753;40.394;-80.022;2023-01-24T06:01:44;97617.91;;;2.07;45.80
74334;BME280;62753;40.394;-80.022;2023-01-24T06:04:10;97615.19;;;3.03;44.34
74334;BME280;62753;40.394;-80.022;2023-01-24T06:06:35;97618.03;;;2.88;42.99
74334;BME280;62753;40.394;-80.022;2023-01-24T06:09:01;97616.42;;;2.62;43.19
74334;BME280;62753;40.394;-80.022;2023-01-24T06:11:27;97623.73;;;3.45;42.34
74334;BME280;62753;40.394;-80.022;2023-01-24T06:13:54;97627.00;;;2.25;44.05
74334;BME280;62753;40.394;-80.022;2023-01-24T06:16:19;97634.04;;;2.00;46.12
74334;BME280;62753;40.394;-80.022;2023-01-24T06:18:44;97616.60;;;1.24;45.81
74334;BME280;62753;40.394;-80.022;2023-01-24T06:21:16;97628.51;;;1.89;46.39
74334;BME280;62753;40.394;-80.022;2023-01-24T06:23:34;97634.35;;;0.89;47.27
74334;BME280;62753;40.394;-80.022;2023-01-24T06:26:00;97636.56;;;1.14;46.61
74334;BME280;62753;40.394;-80.022;2023-01-24T06:28:25;97638.61;;;0.72;48.95
74334;BME280;62753;40.394;-80.022;2023-01-24T06:30:59;97631.82;;;0.48;48.97
74334;BME280;62753;40.394;-80.022;2023-01-24T06:33:25;97627.10;;;0.68;48.25
74334;BME280;62753;40.394;-80.022;2023-01-24T06:35:49;97638.49;;;0.43;48.75
74334;BME280;62753;40.394;-80.022;2023-01-24T06:38:15;97652.33;;;0.90;48.08
74334;BME280;62753;40.394;-80.022;2023-01-24T06:40:33;97648.97;;;0.02;48.73
74334;BME280;62753;40.394;-80.022;2023-01-24T06:42:59;97652.93;;;0.81;48.14
74334;BME280;62753;40.394;-80.022;2023-01-24T06:45:24;97660.71;;;1.00;48.56
74334;BME280;62753;40.394;-80.022;2023-01-24T06:47:49;97668.38;;;1.27;49.04
74334;BME280;62753;40.394;-80.022;2023-01-24T06:50:17;97680.41;;;1.37;47.14
74334;BME280;62753;40.394;-80.022;2023-01-24T06:52:43;97680.40;;;1.50;46.62
74334;BME280;62753;40.394;-80.022;2023-01-24T06:55:07;97696.74;;;2.24;45.42
74334;BME280;62753;40.394;-80.022;2023-01-24T06:57:32;97688.50;;;1.05;47.88
74334;BME280;62753;40.394;-80.022;2023-01-24T06:59:57;97694.91;;;1.61;45.35
74334;BME280;62753;40.394;-80.022;2023-01-24T07:02:23;97691.44;;;1.69;45.79
74334;BME280;62753;40.394;-80.022;2023-01-24T07:04:48;97708.71;;;2.37;44.45
74334;BME280;62753;40.394;-80.022;2023-01-24T07:07:14;97707.01;;;1.58;44.11
74334;BME280;62753;40.394;-80.022;2023-01-24T07:09:40;97715.87;;;1.32;46.89
74334;BME280;62753;40.394;-80.022;2023-01-24T07:12:05;97719.13;;;1.36;45.60
74334;BME280;62753;40.394;-80.022;2023-01-24T07:14:31;97707.68;;;0.25;49.88
74334;BME280;62753;40.394;-80.022;2023-01-24T07:16:57;97722.68;;;0.68;49.04
74334;BME280;62753;40.394;-80.022;2023-01-24T07:19:23;97715.59;;;0.19;50.22
74334;BME280;62753;40.394;-80.022;2023-01-24T07:21:48;97722.70;;;-0.08;49.99
74334;BME280;62753;40.394;-80.022;2023-01-24T07:24:16;97708.10;;;1.07;48.16
74334;BME280;62753;40.394;-80.022;2023-01-24T07:26:40;97723.59;;;-0.05;49.92
74334;BME280;62753;40.394;-80.022;2023-01-24T07:29:05;97734.87;;;0.32;49.25
74334;BME280;62753;40.394;-80.022;2023-01-24T07:31:30;97735.90;;;-0.07;50.65
74334;BME280;62753;40.394;-80.022;2023-01-24T07:33:56;97746.35;;;1.09;48.25
74334;BME280;62753;40.394;-80.022;2023-01-24T07:36:21;97751.74;;;0.46;49.37
74334;BME280;62753;40.394;-80.022;2023-01-24T07:38:47;97760.36;;;0.73;48.58
74334;BME280;62753;40.394;-80.022;2023-01-24T07:41:13;97759.48;;;0.70;48.89
74334;BME280;62753;40.394;-80.022;2023-01-24T07:43:38;97756.57;;;0.40;49.30
74334;BME280;62753;40.394;-80.022;2023-01-24T07:46:04;97754.93;;;0.80;48.90
74334;BME280;62753;40.394;-80.022;2023-01-24T07:48:29;97749.11;;;0.54;47.36
74334;BME280;62753;40.394;-80.022;2023-01-24T07:50:58;97764.57;;;0.13;49.59
74334;BME280;62753;40.394;-80.022;2023-01-24T07:53:20;97759.78;;;0.39;49.25
74334;BME280;62753;40.394;-80.022;2023-01-24T07:55:45;97758.65;;;0.90;48.64
74334;BME280;62753;40.394;-80.022;2023-01-24T07:58:11;97765.60;;;0.29;48.93
74334;BME280;62753;40.394;-80.022;2023-01-24T08:00:36;97759.23;;;0.62;49.11
74334;BME280;62753;40.394;-80.022;2023-01-24T08:03:02;97762.61;;;1.42;47.50
74334;BME280;62753;40.394;-80.022;2023-01-24T08:05:27;97756.35;;;0.92;47.70
74334;BME280;62753;40.394;-80.022;2023-01-24T08:07:59;97761.21;;;0.87;48.38
74334;BME280;62753;40.394;-80.022;2023-01-24T08:10:19;97759.97;;;1.12;47.50
74334;BME280;62753;40.394;-80.022;2023-01-24T08:12:50;97760.37;;;0.61;48.58
74334;BME280;62753;40.394;-80.022;2023-01-24T08:15:10;97753.11;;;0.34;49.01
74334;BME280;62753;40.394;-80.022;2023-01-24T08:17:36;97750.31;;;1.13;47.82
74334;BME280;62753;40.394;-80.022;2023-01-24T08:20:01;97764.62;;;1.24;47.52
74334;BME280;62753;40.394;-80.022;2023-01-24T08:22:27;97771.45;;;1.15;47.91
74334;BME280;62753;40.394;-80.022;2023-01-24T08:24:52;97777.97;;;0.78;48.68
74334;BME280;62753;40.394;-80.022;2023-01-24T08:27:17;97777.80;;;1.44;46.66
74334;BME280;62753;40.394;-80.022;2023-01-24T08:29:42;97773.78;;;1.45;46.98
74334;BME280;62753;40.394;-80.022;2023-01-24T08:32:08;97772.12;;;1.46;46.45
74334;BME280;62753;40.394;-80.022;2023-01-24T08:34:33;97776.10;;;1.11;46.51
74334;BME280;62753;40.394;-80.022;2023-01-24T08:36:59;97763.42;;;1.34;46.28
74334;BME280;62753;40.394;-80.022;2023-01-24T08:39:25;97772.57;;;1.30;46.69
74334;BME280;62753;40.394;-80.022;2023-01-24T08:41:50;97773.02;;;0.63;47.75
74334;BME280;62753;40.394;-80.022;2023-01-24T08:44:16;97771.04;;;1.99;45.59
74334;BME280;62753;40.394;-80.022;2023-01-24T08:46:42;97768.13;;;2.26;45.39
74334;BME280;62753;40.394;-80.022;2023-01-24T08:49:08;97763.02;;;1.51;46.07
74334;BME280;62753;40.394;-80.022;2023-01-24T08:51:33;97759.17;;;0.95;48.46
74334;BME280;62753;40.394;-80.022;2023-01-24T08:53:58;97758.29;;;1.16;47.61
74334;BME280;62753;40.394;-80.022;2023-01-24T08:56:23;97764.60;;;0.50;49.69
74334;BME280;62753;40.394;-80.022;2023-01-24T08:58:48;97764.26;;;0.48;49.77
74334;BME280;62753;40.394;-80.022;2023-01-24T09:01:14;97759.84;;;2.09;45.90
74334;BME280;62753;40.394;-80.022;2023-01-24T09:03:39;97761.57;;;1.51;47.27
74334;BME280;62753;40.394;-80.022;2023-01-24T09:06:05;97756.95;;;1.55;46.99
74334;BME280;62753;40.394;-80.022;2023-01-24T09:08:30;97762.84;;;1.56;47.08
74334;BME280;62753;40.394;-80.022;2023-01-24T09:10:58;97769.27;;;1.27;47.75
74334;BME280;62753;40.394;-80.022;2023-01-24T09:13:21;97757.84;;;1.14;48.27
74334;BME280;62753;40.394;-80.022;2023-01-24T09:15:47;97757.88;;;1.92;44.92
74334;BME280;62753;40.394;-80.022;2023-01-24T09:18:12;97747.36;;;1.38;46.69
74334;BME280;62753;40.394;-80.022;2023-01-24T09:20:37;97744.92;;;0.73;48.89
74334;BME280;62753;40.394;-80.022;2023-01-24T09:23:08;97743.31;;;1.75;46.59
74334;BME280;62753;40.394;-80.022;2023-01-24T09:25:28;97745.89;;;0.95;47.38
74334;BME280;62753;40.394;-80.022;2023-01-24T09:27:54;97748.00;;;1.92;46.35
74334;BME280;62753;40.394;-80.022;2023-01-24T09:30:19;97746.72;;;1.15;47.60
74334;BME280;62753;40.394;-80.022;2023-01-24T09:32:45;97760.27;;;0.91;48.58
74334;BME280;62753;40.394;-80.022;2023-01-24T09:35:10;97754.84;;;1.12;46.65
74334;BME280;62753;40.394;-80.022;2023-01-24T09:37:35;97746.39;;;0.25;49.24
74334;BME280;62753;40.394;-80.022;2023-01-24T09:40:01;97748.00;;;1.40;46.59
74334;BME280;62753;40.394;-80.022;2023-01-24T09:42:33;97749.40;;;2.29;44.75
74334;BME280;62753;40.394;-80.022;2023-01-24T09:44:57;97754.18;;;2.07;44.49
74334;BME280;62753;40.394;-80.022;2023-01-24T09:47:21;97753.29;;;1.43;46.42
74334;BME280;62753;40.394;-80.022;2023-01-24T09:49:47;97750.93;;;1.51;46.48
74334;BME280;62753;40.394;-80.022;2023-01-24T09:52:17;97744.79;;;1.03;47.90
74334;BME280;62753;40.394;-80.022;2023-01-24T09:54:46;97756.67;;;1.23;47.85
74334;BME280;62753;40.394;-80.022;2023-01-24T09:56:59;97765.92;;;0.77;48.90
74334;BME280;62753;40.394;-80.022;2023-01-24T09:59:32;97762.06;;;1.47;46.76
74334;BME280;62753;40.394;-80.022;2023-01-24T10:01:51;97765.07;;;1.81;46.14
74334;BME280;62753;40.394;-80.022;2023-01-24T10:04:22;97787.73;;;0.94;47.40
74334;BME280;62753;40.394;-80.022;2023-01-24T10:06:47;97804.06;;;0.26;49.14
74334;BME280;62753;40.394;-80.022;2023-01-24T10:09:11;97804.61;;;0.68;48.93
74334;BME280;62753;40.394;-80.022;2023-01-24T10:11:35;97814.63;;;1.66;46.83
74334;BME280;62753;40.394;-80.022;2023-01-24T10:18:59;97832.01;;;1.10;47.02
74334;BME280;62753;40.394;-80.022;2023-01-24T10:21:24;97838.64;;;1.32;47.42
74334;BME280;62753;40.394;-80.022;2023-01-24T10:23:40;97826.54;;;1.47;46.99
74334;BME280;62753;40.394;-80.022;2023-01-24T10:26:14;97829.52;;;1.58;46.03
74334;BME280;62753;40.394;-80.022;2023-01-24T10:28:33;97823.99;;;0.16;49.34
74334;BME280;62753;40.394;-80.022;2023-01-24T10:30:59;97819.97;;;1.14;48.26
74334;BME280;62753;40.394;-80.022;2023-01-24T10:33:19;97822.68;;;0.27;50.12
74334;BME280;62753;40.394;-80.022;2023-01-24T10:35:53;97824.71;;;0.58;48.76
74334;BME280;62753;40.394;-80.022;2023-01-24T10:38:13;97828.77;;;1.56;46.57
74334;BME280;62753;40.394;-80.022;2023-01-24T10:43:05;97835.17;;;2.12;45.12
74334;BME280;62753;40.394;-80.022;2023-01-24T10:45:38;97828.43;;;1.28;45.89
74334;BME280;62753;40.394;-80.022;2023-01-24T10:47:53;97829.06;;;0.80;48.05
74334;BME280;62753;40.394;-80.022;2023-01-24T10:50:18;97827.29;;;1.95;45.15
74334;BME280;62753;40.394;-80.022;2023-01-24T10:52:42;97826.50;;;1.46;46.71
74334;BME280;62753;40.394;-80.022;2023-01-24T10:57:37;97818.32;;;2.56;43.53
74334;BME280;62753;40.394;-80.022;2023-01-24T11:00:04;97816.53;;;2.96;42.91
74334;BME280;62753;40.394;-80.022;2023-01-24T11:02:25;97818.26;;;2.67;43.10
74334;BME280;62753;40.394;-80.022;2023-01-24T11:04:56;97823.65;;;2.06;44.67
74334;BME280;62753;40.394;-80.022;2023-01-24T11:07:26;97813.74;;;1.12;46.05
74334;BME280;62753;40.394;-80.022;2023-01-24T11:09:40;97805.64;;;2.04;45.86
74334;BME280;62753;40.394;-80.022;2023-01-24T11:12:12;97811.69;;;1.63;45.67
74334;BME280;62753;40.394;-80.022;2023-01-24T11:14:32;97804.37;;;1.80;45.54
74334;BME280;62753;40.394;-80.022;2023-01-24T11:16:58;97798.32;;;1.84;45.69
74334;BME280;62753;40.394;-80.022;2023-01-24T11:19:27;97815.99;;;1.80;45.15
74334;BME280;62753;40.394;-80.022;2023-01-24T11:21:51;97818.89;;;1.80;44.94
74334;BME280;62753;40.394;-80.022;2023-01-24T11:24:15;97825.28;;;1.77;46.00
74334;BME280;62753;40.394;-80.022;2023-01-24T11:26:53;97828.57;;;1.82;45.90
74334;BME280;62753;40.394;-80.022;2023-01-24T11:29:05;97837.12;;;1.65;46.65
74334;BME280;62753;40.394;-80.022;2023-01-24T11:31:35;97832.78;;;1.49;45.36
74334;BME280;62753;40.394;-80.022;2023-01-24T11:36:32;97841.17;;;1.44;45.87
74334;BME280;62753;40.394;-80.022;2023-01-24T11:38:45;97852.61;;;2.38;45.00
74334;BME280;62753;40.394;-80.022;2023-01-24T11:41:12;97858.34;;;1.41;46.34
74334;BME280;62753;40.394;-80.022;2023-01-24T11:43:57;97860.25;;;1.29;47.75
74334;BME280;62753;40.394;-80.022;2023-01-24T11:46:15;97876.36;;;1.58;46.26
74334;BME280;62753;40.394;-80.022;2023-01-24T11:48:30;97871.81;;;1.24;46.94
74334;BME280;62753;40.394;-80.022;2023-01-24T11:51:01;97875.75;;;1.12;48.04
74334;BME280;62753;40.394;-80.022;2023-01-24T11:53:31;97872.10;;;1.51;47.34
74334;BME280;62753;40.394;-80.022;2023-01-24T11:55:51;97870.16;;;1.53;47.55
74334;BME280;62753;40.394;-80.022;2023-01-24T11:58:21;97872.69;;;2.66;44.86
74334;BME280;62753;40.394;-80.022;2023-01-24T12:00:36;97879.11;;;2.79;44.13
74334;BME280;62753;40.394;-80.022;2023-01-24T12:03:13;97869.26;;;3.66;42.40
74334;BME280;62753;40.394;-80.022;2023-01-24T12:05:36;97878.36;;;4.10;41.32
74334;BME280;62753;40.394;-80.022;2023-01-24T12:07:56;97869.35;;;2.57;44.11
74334;BME280;62753;40.394;-80.022;2023-01-24T12:10:21;97866.03;;;2.98;43.02
74334;BME280;62753;40.394;-80.022;2023-01-24T12:12:49;97874.71;;;3.36;42.80
74334;BME280;62753;40.394;-80.022;2023-01-24T12:15:15;97871.86;;;3.22;42.34
74334;BME280;62753;40.394;-80.022;2023-01-24T12:17:42;97876.34;;;3.49;41.86
74334;BME280;62753;40.394;-80.022;2023-01-24T12:22:23;97882.65;;;3.29;42.66
74334;BME280;62753;40.394;-80.022;2023-01-24T12:24:52;97891.77;;;3.33;42.16
74334;BME280;62753;40.394;-80.022;2023-01-24T12:27:15;97889.71;;;2.15;45.85
74334;BME280;62753;40.394;-80.022;2023-01-24T12:29:41;97888.76;;;2.71;44.58
74334;BME280;62753;40.394;-80.022;2023-01-24T12:32:07;97892.04;;;2.87;44.35
74334;BME280;62753;40.394;-80.022;2023-01-24T12:34:36;97892.44;;;3.21;44.19
74334;BME280;62753;40.394;-80.022;2023-01-24T12:36:59;97889.64;;;2.56;44.88
74334;BME280;62753;40.394;-80.022;2023-01-24T12:39:20;97895.63;;;3.84;42.72
74334;BME280;62753;40.394;-80.022;2023-01-24T12:41:51;97890.51;;;3.28;42.94
74334;BME280;62753;40.394;-80.022;2023-01-24T12:44:22;97892.80;;;3.04;43.71
74334;BME280;62753;40.394;-80.022;2023-01-24T12:46:38;97885.11;;;2.85;44.23
74334;BME280;62753;40.394;-80.022;2023-01-24T12:49:07;97888.75;;;2.62;44.81
74334;BME280;62753;40.394;-80.022;2023-01-24T12:51:36;97896.31;;;2.35;44.94
74334;BME280;62753;40.394;-80.022;2023-01-24T12:53:58;97895.50;;;3.42;44.09